createdAt,value
2022-12-28T00:00:30.673Z,0.00
2022-12-28T00:01:30.631Z,0.00
2022-12-28T00:02:30.616Z,0.00
2022-12-28T00:03:30.544Z,0.00
2022-12-28T00:04:30.525Z,0.00
2022-12-28T00:05:30.556Z,0.00
2022-12-28T00:06:30.570Z,0.00
2022-12-28T00:07:30.493Z,0.00
2022-12-28T00:08:30.487Z,0.00
2022-12-28T00:09:30.479Z,0.00
2022-12-28T00:11:08.933Z,0.00
2022-12-28T00:11:31.498Z,0.00
2022-12-28T00:12:30.476Z,0.00
2022-12-28T00:13:30.435Z,0.00
2022-12-28T00:14:30.422Z,0.00
2022-12-28T00:15:30.416Z,0.00
2022-12-28T00:16:30.498Z,0.00
2022-12-28T00:17:30.388Z,0.00
2022-12-28T00:18:30.401Z,0.00
2022-12-28T00:19:30.457Z,0.00
2022-12-28T00:20:30.358Z,0.00
2022-12-28T00:21:30.390Z,0.00
2022-12-28T00:22:30.356Z,0.00
2022-12-28T00:23:30.328Z,0.00
2022-12-28T00:24:30.313Z,0.00
2022-12-28T00:25:30.356Z,0.00
2022-12-28T00:26:30.324Z,0.00
2022-12-28T00:27:30.294Z,0.00
2022-12-28T00:28:30.276Z,0.00
2022-12-28T00:29:30.327Z,0.00
2022-12-28T00:30:30.257Z,0.00
2022-12-28T00:31:30.331Z,0.00
2022-12-28T00:32:30.235Z,0.00
2022-12-28T00:33:30.218Z,0.00
2022-12-28T00:34:30.257Z,0.00
2022-12-28T00:35:30.204Z,0.00
2022-12-28T00:37:10.259Z,0.00
2022-12-28T00:37:31.207Z,0.00
2022-12-28T00:38:30.170Z,0.00
2022-12-28T00:39:30.220Z,0.00
2022-12-28T00:40:30.148Z,0.00
2022-12-28T00:41:30.155Z,0.00
2022-12-28T00:42:30.120Z,0.00
2022-12-28T00:43:30.108Z,0.00
2022-12-28T00:44:30.159Z,0.00
2022-12-28T00:45:30.179Z,0.00
2022-12-28T00:46:30.113Z,0.00
2022-12-28T00:47:30.064Z,0.00
2022-12-28T00:48:30.064Z,0.00
2022-12-28T00:49:30.198Z,0.00
2022-12-28T00:50:30.072Z,0.00
2022-12-28T00:51:30.050Z,0.00
2022-12-28T00:52:30.022Z,0.00
2022-12-28T00:53:30.033Z,0.00
2022-12-28T00:54:30.020Z,0.00
2022-12-28T00:55:29.984Z,0.00
2022-12-28T00:56:30.034Z,0.00
2022-12-28T00:57:29.974Z,0.00
2022-12-28T00:58:29.967Z,0.00
2022-12-28T00:59:29.949Z,0.00
2022-12-28T01:00:29.936Z,0.00
2022-12-28T01:01:30.276Z,0.00
2022-12-28T01:02:29.970Z,0.00
2022-12-28T01:03:29.901Z,0.00
2022-12-28T01:04:30.028Z,0.00
2022-12-28T01:05:29.881Z,0.00
2022-12-28T01:06:29.891Z,0.00
2022-12-28T01:07:29.865Z,0.00
2022-12-28T01:08:29.866Z,0.00
2022-12-28T01:09:29.854Z,0.00
2022-12-28T01:10:29.841Z,0.00
2022-12-28T01:11:29.843Z,0.00
2022-12-28T01:12:34.603Z,0.00
2022-12-28T01:13:30.795Z,0.00
2022-12-28T01:14:29.806Z,0.00
2022-12-28T01:15:29.777Z,0.00
2022-12-28T01:16:29.810Z,0.00
2022-12-28T01:17:29.758Z,0.00
2022-12-28T01:18:29.746Z,0.00
2022-12-28T01:19:29.741Z,0.00
2022-12-28T01:20:29.765Z,0.00
2022-12-28T01:21:29.758Z,0.00
2022-12-28T01:22:29.704Z,0.00
2022-12-28T01:23:29.685Z,0.00
2022-12-28T01:24:29.684Z,0.00
2022-12-28T01:25:29.701Z,0.00
2022-12-28T01:26:29.691Z,0.00
2022-12-28T01:27:29.667Z,0.00
2022-12-28T01:28:29.642Z,0.00
2022-12-28T01:29:29.618Z,0.00
2022-12-28T01:30:29.611Z,0.00
2022-12-28T01:31:29.684Z,0.00
2022-12-28T01:32:29.598Z,0.00
2022-12-28T01:33:29.628Z,0.00
2022-12-28T01:34:29.575Z,0.00
2022-12-28T01:35:29.555Z,0.00
2022-12-28T01:36:29.559Z,0.00
2022-12-28T01:37:29.558Z,0.00
2022-12-28T01:38:29.530Z,0.00
2022-12-28T01:39:29.533Z,0.00
2022-12-28T01:40:29.504Z,0.00
2022-12-28T01:41:29.543Z,0.00
2022-12-28T01:42:29.494Z,0.00
2022-12-28T01:43:30.097Z,0.00
2022-12-28T01:44:29.469Z,0.00
2022-12-28T01:45:29.529Z,0.00
2022-12-28T01:46:29.476Z,0.00
2022-12-28T01:47:29.430Z,0.00
2022-12-28T01:48:29.419Z,0.00
2022-12-28T01:49:29.405Z,0.00
2022-12-28T01:50:29.430Z,0.00
2022-12-28T01:51:29.447Z,0.00
2022-12-28T01:52:29.382Z,0.00
2022-12-28T01:53:29.363Z,0.00
2022-12-28T01:54:29.359Z,0.00
2022-12-28T01:55:29.351Z,0.00
2022-12-28T01:56:29.362Z,0.00
2022-12-28T01:57:29.347Z,0.00
2022-12-28T01:58:29.312Z,0.00
2022-12-28T01:59:29.303Z,0.00
2022-12-28T02:00:29.310Z,0.00
2022-12-28T02:01:29.401Z,0.00
2022-12-28T02:02:29.479Z,0.00
2022-12-28T02:03:29.278Z,0.00
2022-12-28T02:04:29.271Z,0.00
2022-12-28T02:05:29.240Z,0.00
2022-12-28T02:06:29.243Z,0.00
2022-12-28T02:07:29.222Z,0.00
2022-12-28T02:08:29.221Z,0.00
2022-12-28T02:09:29.211Z,0.00
2022-12-28T02:10:41.113Z,0.00
2022-12-28T02:11:30.195Z,0.00
2022-12-28T02:12:29.264Z,0.00
2022-12-28T02:13:29.175Z,0.00
2022-12-28T02:14:29.149Z,0.00
2022-12-28T02:15:29.139Z,0.00
2022-12-28T02:16:29.243Z,0.00
2022-12-28T02:17:29.123Z,0.00
2022-12-28T02:18:29.129Z,0.00
2022-12-28T02:19:29.097Z,0.00
2022-12-28T02:20:29.089Z,0.00
2022-12-28T02:21:29.086Z,0.00
2022-12-28T02:22:29.099Z,0.00
2022-12-28T02:23:29.057Z,0.00
2022-12-28T02:24:29.067Z,0.00
2022-12-28T02:25:29.028Z,0.00
2022-12-28T02:26:29.075Z,0.00
2022-12-28T02:27:29.016Z,0.00
2022-12-28T02:28:29.026Z,0.00
2022-12-28T02:29:29.022Z,0.00
2022-12-28T02:30:29.046Z,0.00
2022-12-28T02:31:28.980Z,0.00
2022-12-28T02:32:28.954Z,0.00
2022-12-28T02:33:28.944Z,0.00
2022-12-28T02:34:28.960Z,0.00
2022-12-28T02:35:28.924Z,0.00
2022-12-28T02:36:28.950Z,0.00
2022-12-28T02:37:28.902Z,0.00
2022-12-28T02:38:28.895Z,0.00
2022-12-28T02:39:28.887Z,0.00
2022-12-28T02:40:28.921Z,0.00
2022-12-28T02:41:28.893Z,0.00
2022-12-28T02:42:28.848Z,0.00
2022-12-28T02:43:28.842Z,0.00
2022-12-28T02:44:28.835Z,0.00
2022-12-28T02:45:28.829Z,0.00
2022-12-28T02:46:28.906Z,0.00
2022-12-28T02:47:28.822Z,0.00
2022-12-28T02:48:28.793Z,0.00
2022-12-28T02:49:28.793Z,0.00
2022-12-28T02:50:28.792Z,0.00
2022-12-28T02:51:28.770Z,0.00
2022-12-28T02:52:28.745Z,0.00
2022-12-28T02:53:28.748Z,0.00
2022-12-28T02:54:28.725Z,0.00
2022-12-28T02:55:28.733Z,0.00
2022-12-28T02:56:28.723Z,0.00
2022-12-28T02:57:28.699Z,0.00
2022-12-28T02:58:28.684Z,0.00
2022-12-28T02:59:28.720Z,0.00
2022-12-28T03:00:28.655Z,0.00
2022-12-28T03:01:28.813Z,0.00
2022-12-28T03:02:28.850Z,0.00
2022-12-28T03:03:28.738Z,0.00
2022-12-28T03:04:28.626Z,0.00
2022-12-28T03:05:28.660Z,0.00
2022-12-28T03:06:30.519Z,0.00
2022-12-28T03:07:28.596Z,0.00
2022-12-28T03:08:28.575Z,0.00
2022-12-28T03:09:28.561Z,0.00
2022-12-28T03:10:28.598Z,0.00
2022-12-28T03:11:28.590Z,0.00
2022-12-28T03:12:28.543Z,0.00
2022-12-28T03:13:28.525Z,0.00
2022-12-28T03:14:28.505Z,0.00
2022-12-28T03:15:28.531Z,0.00
2022-12-28T03:16:28.515Z,0.00
2022-12-28T03:17:28.495Z,0.00
2022-12-28T03:18:28.498Z,0.00
2022-12-28T03:19:28.465Z,0.00
2022-12-28T03:20:28.450Z,0.00
2022-12-28T03:21:28.449Z,0.00
2022-12-28T03:22:28.436Z,0.00
2022-12-28T03:23:28.450Z,0.00
2022-12-28T03:24:28.456Z,0.00
2022-12-28T03:25:28.396Z,0.00
2022-12-28T03:26:28.404Z,0.00
2022-12-28T03:27:28.367Z,0.00
2022-12-28T03:28:28.360Z,0.00
2022-12-28T03:29:28.387Z,0.00
2022-12-28T03:30:28.351Z,0.00
2022-12-28T03:31:28.375Z,0.00
2022-12-28T03:32:28.315Z,0.00
2022-12-28T03:33:28.319Z,0.00
2022-12-28T03:34:28.290Z,0.00
2022-12-28T03:35:28.309Z,0.00
2022-12-28T03:36:28.287Z,0.00
2022-12-28T03:37:28.273Z,0.00
2022-12-28T03:38:28.270Z,0.00
2022-12-28T03:39:28.245Z,0.00
2022-12-28T03:40:28.228Z,0.00
2022-12-28T03:41:28.281Z,0.00
2022-12-28T03:42:28.210Z,0.00
2022-12-28T03:43:28.202Z,0.00
2022-12-28T03:44:28.189Z,0.00
2022-12-28T03:45:46.523Z,0.00
2022-12-28T03:46:29.207Z,0.00
2022-12-28T03:47:28.172Z,0.00
2022-12-28T03:48:28.156Z,0.00
2022-12-28T03:49:28.166Z,0.00
2022-12-28T03:50:28.126Z,0.00
2022-12-28T03:51:28.148Z,0.00
2022-12-28T03:52:28.105Z,0.00
2022-12-28T03:53:28.138Z,0.00
2022-12-28T03:54:28.089Z,0.00
2022-12-28T03:55:28.066Z,0.00
2022-12-28T03:56:28.198Z,0.00
2022-12-28T03:57:28.048Z,0.00
2022-12-28T03:58:28.034Z,0.00
2022-12-28T03:59:28.078Z,0.00
2022-12-28T04:00:28.018Z,0.00
2022-12-28T04:01:28.298Z,0.00
2022-12-28T04:02:28.079Z,0.00
2022-12-28T04:03:28.032Z,0.00
2022-12-28T04:04:27.991Z,0.00
2022-12-28T04:05:27.992Z,0.00
2022-12-28T04:06:28.290Z,0.00
2022-12-28T04:07:28.004Z,0.00
2022-12-28T04:08:27.987Z,0.00
2022-12-28T04:09:27.931Z,0.00
2022-12-28T04:10:27.922Z,0.00
2022-12-28T04:11:27.935Z,0.00
2022-12-28T04:12:27.905Z,0.00
2022-12-28T04:13:27.922Z,0.00
2022-12-28T04:14:27.869Z,0.00
2022-12-28T04:15:27.866Z,0.00
2022-12-28T04:16:27.859Z,0.00
2022-12-28T04:17:27.890Z,0.00
2022-12-28T04:18:27.843Z,0.00
2022-12-28T04:19:27.813Z,0.00
2022-12-28T04:20:27.798Z,0.00
2022-12-28T04:21:27.856Z,0.00
2022-12-28T04:22:27.787Z,0.00
2022-12-28T04:23:27.780Z,0.00
2022-12-28T04:24:27.793Z,0.00
2022-12-28T04:25:27.758Z,0.00
2022-12-28T04:26:27.750Z,0.00
2022-12-28T04:27:27.726Z,0.00
2022-12-28T04:28:27.711Z,0.00
2022-12-28T04:29:27.767Z,0.00
2022-12-28T04:30:27.711Z,0.00
2022-12-28T04:31:27.742Z,0.00
2022-12-28T04:32:27.668Z,0.00
2022-12-28T04:33:27.657Z,0.00
2022-12-28T04:34:27.648Z,0.00
2022-12-28T04:35:27.696Z,0.00
2022-12-28T04:36:27.627Z,0.00
2022-12-28T04:37:27.640Z,0.00
2022-12-28T04:38:27.601Z,0.00
2022-12-28T04:39:27.596Z,0.00
2022-12-28T04:40:28.608Z,0.00
2022-12-28T04:41:27.610Z,0.00
2022-12-28T04:42:27.570Z,0.00
2022-12-28T04:43:27.564Z,0.00
2022-12-28T04:44:27.544Z,0.00
2022-12-28T04:45:27.578Z,0.00
2022-12-28T04:46:27.570Z,0.00
2022-12-28T04:47:27.547Z,0.00
2022-12-28T04:48:27.504Z,0.00
2022-12-28T04:49:27.507Z,0.00
2022-12-28T04:50:27.486Z,0.00
2022-12-28T04:51:27.487Z,0.00
2022-12-28T04:52:27.455Z,0.00
2022-12-28T04:53:27.489Z,0.00
2022-12-28T04:54:27.434Z,0.00
2022-12-28T04:55:32.338Z,0.00
2022-12-28T04:56:28.522Z,0.00
2022-12-28T04:57:27.398Z,0.00
2022-12-28T04:58:27.389Z,0.00
2022-12-28T04:59:27.386Z,0.00
2022-12-28T05:00:27.460Z,0.00
2022-12-28T05:01:27.510Z,0.00
2022-12-28T05:02:27.534Z,0.00
2022-12-28T05:03:27.333Z,0.00
2022-12-28T05:04:27.337Z,0.00
2022-12-28T05:05:27.324Z,0.00
2022-12-28T05:06:27.418Z,0.00
2022-12-28T05:07:27.311Z,0.00
2022-12-28T05:08:27.288Z,0.00
2022-12-28T05:09:27.299Z,0.00
2022-12-28T05:10:27.285Z,0.00
2022-12-28T05:11:27.285Z,0.00
2022-12-28T05:12:27.236Z,0.00
2022-12-28T05:13:27.262Z,0.00
2022-12-28T05:14:29.854Z,0.00
2022-12-28T05:15:28.218Z,0.00
2022-12-28T05:16:27.320Z,0.00
2022-12-28T05:17:27.186Z,0.00
2022-12-28T05:18:27.173Z,0.00
2022-12-28T05:19:27.209Z,0.00
2022-12-28T05:20:27.154Z,0.00
2022-12-28T05:21:27.199Z,0.00
2022-12-28T05:22:27.131Z,0.00
2022-12-28T05:23:27.132Z,0.00
2022-12-28T05:24:27.111Z,0.00
2022-12-28T05:25:27.141Z,0.00
2022-12-28T05:26:27.105Z,0.00
2022-12-28T05:27:27.080Z,0.00
2022-12-28T05:28:27.067Z,0.00
2022-12-28T05:29:27.062Z,0.00
2022-12-28T05:30:27.047Z,0.00
2022-12-28T05:31:27.150Z,0.00
2022-12-28T05:32:27.029Z,0.00
2022-12-28T05:33:27.026Z,0.00
2022-12-28T05:34:27.000Z,0.00
2022-12-28T05:35:27.003Z,0.00
2022-12-28T05:36:26.996Z,0.00
2022-12-28T05:37:27.008Z,0.00
2022-12-28T05:38:26.972Z,0.00
2022-12-28T05:39:26.947Z,0.00
2022-12-28T05:40:26.943Z,0.00
2022-12-28T05:41:26.995Z,0.00
2022-12-28T05:42:26.928Z,0.00
2022-12-28T05:43:26.915Z,0.00
2022-12-28T05:44:26.925Z,0.00
2022-12-28T05:45:26.884Z,0.00
2022-12-28T05:46:26.943Z,0.00
2022-12-28T05:47:26.865Z,0.00
2022-12-28T05:48:26.851Z,0.00
2022-12-28T05:49:26.841Z,0.00
2022-12-28T05:50:26.855Z,0.00
2022-12-28T05:51:26.854Z,0.00
2022-12-28T05:52:26.808Z,0.00
2022-12-28T05:53:26.801Z,0.00
2022-12-28T05:54:26.785Z,0.00
2022-12-28T05:55:26.794Z,0.00
2022-12-28T05:56:26.808Z,0.00
2022-12-28T05:57:26.781Z,0.00
2022-12-28T05:58:26.755Z,0.00
2022-12-28T05:59:26.734Z,0.00
2022-12-28T06:00:26.737Z,0.00
2022-12-28T06:01:26.861Z,0.00
2022-12-28T06:02:26.936Z,0.00
2022-12-28T06:03:26.889Z,0.00
2022-12-28T06:04:26.684Z,0.00
2022-12-28T06:05:26.674Z,0.00
2022-12-28T06:06:26.677Z,0.00
2022-12-28T06:07:26.652Z,0.00
2022-12-28T06:08:26.640Z,0.00
2022-12-28T06:09:26.644Z,0.00
2022-12-28T06:10:26.628Z,0.00
2022-12-28T06:11:26.666Z,0.00
2022-12-28T06:12:26.594Z,0.00
2022-12-28T06:13:26.603Z,0.00
2022-12-28T06:14:26.568Z,0.00
2022-12-28T06:15:26.565Z,0.00
2022-12-28T06:16:26.689Z,0.00
2022-12-28T06:17:26.558Z,0.00
2022-12-28T06:18:26.530Z,0.00
2022-12-28T06:19:26.534Z,0.00
2022-12-28T06:20:26.513Z,0.00
2022-12-28T06:21:26.667Z,0.00
2022-12-28T06:22:26.507Z,0.00
2022-12-28T06:23:26.524Z,0.00
2022-12-28T06:24:26.467Z,0.00
2022-12-28T06:25:26.466Z,0.00
2022-12-28T06:26:26.465Z,0.00
2022-12-28T06:27:26.429Z,0.00
2022-12-28T06:28:26.433Z,0.00
2022-12-28T06:29:26.433Z,0.00
2022-12-28T06:30:26.395Z,0.00
2022-12-28T06:31:26.548Z,0.00
2022-12-28T06:32:26.380Z,0.00
2022-12-28T06:33:26.392Z,0.00
2022-12-28T06:34:26.374Z,0.00
2022-12-28T06:35:26.363Z,0.00
2022-12-28T06:36:26.395Z,0.00
2022-12-28T06:37:26.331Z,0.00
2022-12-28T06:38:26.308Z,0.00
2022-12-28T06:39:26.302Z,0.00
2022-12-28T06:40:33.488Z,0.00
2022-12-28T06:41:27.312Z,4.00
2022-12-28T06:42:26.381Z,4.00
2022-12-28T06:43:26.281Z,0.00
2022-12-28T06:44:26.255Z,0.00
2022-12-28T06:45:26.262Z,4.00
2022-12-28T06:46:26.244Z,4.00
2022-12-28T06:49:51.991Z,8.00
2022-12-28T06:50:51.957Z,8.00
2022-12-28T06:51:51.960Z,8.00
2022-12-28T06:52:51.933Z,12.00
2022-12-28T06:53:51.923Z,16.00
2022-12-28T06:54:51.925Z,16.00
2022-12-28T06:55:51.931Z,20.00
2022-12-28T06:56:51.919Z,20.00
2022-12-28T06:57:51.880Z,28.00
2022-12-28T06:58:54.486Z,32.00
2022-12-28T06:59:52.866Z,36.00
2022-12-28T07:00:51.955Z,40.00
2022-12-28T07:01:52.080Z,44.00
2022-12-28T07:02:51.861Z,52.00
2022-12-28T07:03:51.827Z,60.00
2022-12-28T07:04:51.859Z,68.00
2022-12-28T07:05:51.822Z,80.00
2022-12-28T07:06:51.802Z,92.00
2022-12-28T07:07:51.773Z,108.00
2022-12-28T07:08:51.765Z,124.00
2022-12-28T07:09:51.755Z,144.00
2022-12-28T07:10:51.761Z,156.00
2022-12-28T07:11:51.822Z,180.00
2022-12-28T07:12:51.728Z,200.00
2022-12-28T07:13:51.713Z,216.00
2022-12-28T07:14:51.700Z,228.00
2022-12-28T07:15:51.687Z,244.00
2022-12-28T07:16:51.712Z,260.00
2022-12-28T07:17:51.707Z,284.00
2022-12-28T07:18:51.655Z,312.00
2022-12-28T07:19:51.655Z,344.00
2022-12-28T07:20:51.638Z,372.00
2022-12-28T07:21:51.640Z,400.00
2022-12-28T07:22:51.614Z,428.00
2022-12-28T07:23:51.624Z,452.00
2022-12-28T07:24:51.605Z,476.00
2022-12-28T07:25:51.581Z,508.00
2022-12-28T07:26:51.586Z,536.00
2022-12-28T07:27:51.562Z,568.00
2022-12-28T07:28:51.558Z,600.00
2022-12-28T07:29:51.560Z,636.00
2022-12-28T07:30:51.592Z,668.00
2022-12-28T07:31:51.540Z,696.00
2022-12-28T07:32:51.527Z,724.00
2022-12-28T07:33:51.508Z,752.00
2022-12-28T07:34:51.490Z,788.00
2022-12-28T07:35:51.516Z,824.00
2022-12-28T07:36:51.478Z,864.00
2022-12-28T07:37:51.455Z,912.00
2022-12-28T07:38:51.477Z,960.00
2022-12-28T07:39:51.430Z,1008.00
2022-12-28T07:40:51.420Z,1056.00
2022-12-28T07:41:51.443Z,1104.00
2022-12-28T07:42:51.397Z,1156.00
2022-12-28T07:43:51.401Z,1208.00
2022-12-28T07:44:51.370Z,1260.00
2022-12-28T07:45:51.390Z,1308.00
2022-12-28T07:46:51.349Z,1356.00
2022-12-28T07:47:51.353Z,1404.00
2022-12-28T07:48:51.370Z,1452.00
2022-12-28T07:49:51.355Z,1504.00
2022-12-28T07:50:51.315Z,1560.00
2022-12-28T07:51:51.298Z,1628.00
2022-12-28T07:52:51.293Z,1692.00
2022-12-28T07:53:51.312Z,1776.00
2022-12-28T07:54:51.371Z,1868.00
2022-12-28T07:55:51.273Z,1972.00
2022-12-28T07:56:51.271Z,2076.00
2022-12-28T07:57:51.281Z,2180.00
2022-12-28T07:58:51.225Z,2272.00
2022-12-28T07:59:51.235Z,2356.00
2022-12-28T08:00:51.288Z,2420.00
2022-12-28T08:04:14.627Z,2520.00
2022-12-28T08:05:11.186Z,2548.00
2022-12-28T08:06:11.173Z,2580.00
2022-12-28T08:07:11.160Z,2620.00
2022-12-28T08:08:11.149Z,2668.00
2022-12-28T08:09:11.147Z,2736.00
2022-12-28T08:10:11.137Z,2804.00
2022-12-28T08:11:11.127Z,2872.00
2022-12-28T08:12:11.112Z,2936.00
2022-12-28T08:13:11.130Z,2988.00
2022-12-28T08:14:11.104Z,3040.00
2022-12-28T08:15:11.061Z,3104.00
2022-12-28T08:16:11.147Z,3160.00
2022-12-28T08:17:14.843Z,3204.00
2022-12-28T08:18:12.036Z,3216.00
2022-12-28T08:19:11.025Z,3228.00
2022-12-28T08:20:11.046Z,3260.00
2022-12-28T08:21:11.063Z,3308.00
2022-12-28T08:22:10.990Z,3400.00
2022-12-28T08:23:10.987Z,3484.00
2022-12-28T08:24:10.978Z,3596.00
2022-12-28T08:25:11.083Z,3728.00
2022-12-28T08:26:11.059Z,3900.00
2022-12-28T08:27:11.015Z,4084.00
2022-12-28T08:28:11.577Z,4288.00
2022-12-28T08:29:10.951Z,4476.00
2022-12-28T08:30:10.912Z,4676.00
2022-12-28T08:31:10.955Z,4928.00
2022-12-28T08:32:10.895Z,5208.00
2022-12-28T08:33:10.878Z,5500.00
2022-12-28T08:34:10.871Z,5792.00
2022-12-28T08:35:10.916Z,6048.00
2022-12-28T08:36:11.331Z,6260.00
2022-12-28T08:37:11.333Z,6424.00
2022-12-28T08:38:10.819Z,6512.00
2022-12-28T08:39:10.822Z,6528.00
2022-12-28T08:40:10.807Z,6504.00
2022-12-28T08:41:10.828Z,6472.00
2022-12-28T08:42:10.791Z,6464.00
2022-12-28T08:43:11.106Z,6476.00
2022-12-28T08:44:10.766Z,6528.00
2022-12-28T08:45:10.893Z,6580.00
2022-12-28T08:46:11.569Z,6632.00
2022-12-28T08:47:10.768Z,6704.00
2022-12-28T08:48:10.715Z,6760.00
2022-12-28T08:49:10.717Z,6820.00
2022-12-28T08:50:12.287Z,6872.00
2022-12-28T08:51:10.710Z,6884.00
2022-12-28T08:52:11.038Z,6904.00
2022-12-28T08:53:10.674Z,6964.00
2022-12-28T08:54:11.581Z,7032.00
2022-12-28T08:55:12.183Z,7076.00
2022-12-28T08:56:10.666Z,6716.00
2022-12-28T08:57:10.636Z,6400.00
2022-12-28T08:58:10.618Z,6136.00
2022-12-28T08:59:10.595Z,6048.00
2022-12-28T09:00:10.581Z,6024.00
2022-12-28T09:01:10.644Z,6040.00
2022-12-28T09:02:10.698Z,6092.00
2022-12-28T09:03:11.226Z,6216.00
2022-12-28T09:04:10.805Z,6336.00
2022-12-28T09:05:10.530Z,6416.00
2022-12-28T09:06:10.523Z,6476.00
2022-12-28T09:07:10.524Z,6516.00
2022-12-28T09:08:10.511Z,6540.00
2022-12-28T09:09:10.484Z,6536.00
2022-12-28T09:10:10.618Z,6492.00
2022-12-28T09:11:10.585Z,6424.00
2022-12-28T09:12:14.068Z,6324.00
2022-12-28T09:13:10.642Z,6196.00
2022-12-28T09:14:10.431Z,6052.00
2022-12-28T09:15:10.415Z,5928.00
2022-12-28T09:16:10.550Z,5860.00
2022-12-28T09:17:10.416Z,5872.00
2022-12-28T09:18:10.428Z,5952.00
2022-12-28T09:19:10.435Z,6036.00
2022-12-28T09:20:10.870Z,6116.00
2022-12-28T09:21:10.568Z,6180.00
2022-12-28T09:22:10.984Z,6268.00
2022-12-28T09:23:10.392Z,6396.00
2022-12-28T09:24:10.369Z,6608.00
2022-12-28T09:25:10.385Z,6856.00
2022-12-28T09:26:10.346Z,7152.00
2022-12-28T09:27:10.344Z,7512.00
2022-12-28T09:28:10.346Z,7648.00
2022-12-28T09:29:10.331Z,7632.00
2022-12-28T09:30:11.139Z,7808.00
2022-12-28T09:31:11.365Z,7912.00
2022-12-28T09:32:10.244Z,8036.00
2022-12-28T09:33:10.264Z,8116.00
2022-12-28T09:35:11.213Z,8092.00
2022-12-28T09:36:10.201Z,8108.00
2022-12-28T09:37:10.204Z,8132.00
2022-12-28T09:38:10.284Z,8224.00
2022-12-28T09:39:11.152Z,8280.00
2022-12-28T09:40:10.172Z,8368.00
2022-12-28T09:41:10.145Z,8516.00
2022-12-28T09:42:10.131Z,8620.00
2022-12-28T09:43:10.112Z,8692.00
2022-12-28T09:44:10.107Z,8844.00
2022-12-28T09:45:10.132Z,9032.00
2022-12-28T09:46:10.180Z,9252.00
2022-12-28T09:47:10.208Z,9600.00
2022-12-28T09:48:11.171Z,10008.00
2022-12-28T09:49:10.049Z,10416.00
2022-12-28T09:50:10.039Z,11008.00
2022-12-28T09:51:10.043Z,11704.00
2022-12-28T09:52:10.033Z,11648.00
2022-12-28T09:53:10.034Z,11696.00
2022-12-28T09:54:10.014Z,11660.00
2022-12-28T09:55:10.000Z,11944.00
2022-12-28T09:56:10.022Z,12008.00
2022-12-28T09:57:13.489Z,11988.00
2022-12-28T09:58:09.959Z,12024.00
2022-12-28T09:59:09.969Z,12384.00
2022-12-28T10:00:09.929Z,12800.00
2022-12-28T10:01:09.955Z,12964.00
2022-12-28T10:02:09.982Z,14108.00
2022-12-28T10:03:10.091Z,14676.00
2022-12-28T10:04:09.907Z,13804.00
2022-12-28T10:05:10.800Z,13384.00
2022-12-28T10:06:15.454Z,13600.00
2022-12-28T10:07:09.868Z,12628.00
2022-12-28T10:08:09.851Z,12616.00
2022-12-28T10:09:09.833Z,12564.00
2022-12-28T10:10:09.825Z,12668.00
2022-12-28T10:11:09.807Z,12732.00
2022-12-28T10:12:09.854Z,12676.00
2022-12-28T10:13:37.167Z,13580.00
2022-12-28T10:14:11.540Z,14492.00
2022-12-28T10:15:12.341Z,14372.00
2022-12-28T10:16:09.804Z,13724.00
2022-12-28T10:17:09.789Z,14436.00
2022-12-28T10:18:09.736Z,14596.00
2022-12-28T10:19:09.723Z,15180.00
2022-12-28T10:20:09.712Z,15156.00
2022-12-28T10:21:09.702Z,15060.00
2022-12-28T10:22:09.716Z,14900.00
2022-12-28T10:23:10.997Z,15028.00
2022-12-28T10:24:41.200Z,15872.00
2022-12-28T10:25:10.654Z,17760.00
2022-12-28T10:26:09.642Z,20928.00
2022-12-28T10:27:09.648Z,21792.00
2022-12-28T10:28:09.637Z,21376.00
2022-12-28T10:29:09.627Z,20672.00
2022-12-28T10:30:09.622Z,20896.00
2022-12-28T10:31:09.756Z,20800.00
2022-12-28T10:32:10.417Z,20768.00
2022-12-28T10:33:13.797Z,21280.00
2022-12-28T10:34:09.559Z,22048.00
2022-12-28T10:35:09.547Z,17056.00
2022-12-28T10:36:09.534Z,17248.00
2022-12-28T10:37:14.076Z,16096.00
2022-12-28T10:38:09.514Z,20000.00
2022-12-28T10:39:09.532Z,21984.00
2022-12-28T10:40:09.738Z,14788.00
2022-12-28T10:41:09.624Z,21376.00
2022-12-28T10:42:09.891Z,17216.00
2022-12-28T10:43:11.266Z,18624.00
2022-12-28T10:44:38.295Z,16096.00
2022-12-28T10:45:10.440Z,15456.00
2022-12-28T10:46:09.428Z,17088.00
2022-12-28T10:47:09.412Z,17376.00
2022-12-28T10:48:09.524Z,17984.00
2022-12-28T10:49:15.255Z,21408.00
2022-12-28T10:50:36.971Z,24960.00
2022-12-28T10:51:10.456Z,25760.00
2022-12-28T10:52:09.360Z,16928.00
2022-12-28T10:53:09.406Z,19808.00
2022-12-28T10:54:09.333Z,11280.00
2022-12-28T10:55:09.319Z,10060.00
2022-12-28T10:56:09.329Z,9572.00
2022-12-28T10:57:09.395Z,9160.00
2022-12-28T10:59:10.568Z,8676.00
2022-12-28T11:00:09.370Z,8364.00
2022-12-28T11:01:09.348Z,8048.00
2022-12-28T11:02:09.318Z,7884.00
2022-12-28T11:03:09.300Z,7720.00
2022-12-28T11:04:09.259Z,7780.00
2022-12-28T11:05:09.213Z,7624.00
2022-12-28T11:06:09.286Z,7540.00
2022-12-28T11:07:09.367Z,7268.00
2022-12-28T11:08:02.336Z,7024.00
2022-12-28T11:09:02.094Z,6824.00
2022-12-28T11:10:09.145Z,6652.00
2022-12-28T11:11:03.789Z,6480.00
2022-12-28T11:12:02.088Z,6180.00
2022-12-28T11:13:02.031Z,6176.00
2022-12-28T11:14:02.016Z,6472.00
2022-12-28T11:15:02.006Z,6996.00
2022-12-28T11:16:02.120Z,7988.00
2022-12-28T11:17:01.999Z,9204.00
2022-12-28T11:18:01.991Z,11980.00
2022-12-28T11:19:04.022Z,10736.00
2022-12-28T11:20:02.239Z,10988.00
2022-12-28T11:21:02.018Z,14784.00
2022-12-28T11:22:01.951Z,9496.00
2022-12-28T11:23:01.915Z,11588.00
2022-12-28T11:24:01.906Z,14812.00
2022-12-28T11:25:01.904Z,9792.00
2022-12-28T11:26:01.886Z,9296.00
2022-12-28T11:27:01.949Z,14744.00
2022-12-28T11:28:02.107Z,16576.00
2022-12-28T11:29:02.138Z,15424.00
2022-12-28T11:30:01.847Z,13516.00
2022-12-28T11:31:01.831Z,19328.00
2022-12-28T11:32:01.951Z,14964.00
2022-12-28T11:33:01.801Z,16864.00
2022-12-28T11:34:01.811Z,16128.00
2022-12-28T11:35:01.901Z,11232.00
2022-12-28T11:36:06.881Z,10780.00
2022-12-28T11:37:03.603Z,12972.00
2022-12-28T11:38:02.102Z,15184.00
2022-12-28T11:39:01.750Z,10604.00
2022-12-28T11:40:01.746Z,7520.00
2022-12-28T11:41:01.726Z,8068.00
2022-12-28T11:43:02.703Z,8080.00
2022-12-28T11:44:01.694Z,8408.00
2022-12-28T11:45:02.105Z,8196.00
2022-12-28T11:46:02.866Z,7516.00
2022-12-28T11:47:02.838Z,8120.00
2022-12-28T11:48:01.674Z,7668.00
2022-12-28T11:49:01.636Z,7840.00
2022-12-28T11:50:01.637Z,8108.00
2022-12-28T11:51:01.621Z,8132.00
2022-12-28T11:52:01.663Z,7440.00
2022-12-28T11:53:01.616Z,7324.00
2022-12-28T11:54:01.778Z,7372.00
2022-12-28T11:55:02.581Z,7440.00
2022-12-28T11:56:02.564Z,7588.00
2022-12-28T11:57:01.569Z,7728.00
2022-12-28T11:58:01.540Z,7904.00
2022-12-28T11:59:01.606Z,8148.00
2022-12-28T12:00:01.556Z,8368.00
2022-12-28T12:01:01.569Z,8508.00
2022-12-28T12:02:01.620Z,8444.00
2022-12-28T12:03:01.734Z,8268.00
2022-12-28T12:04:01.752Z,8080.00
2022-12-28T12:05:01.635Z,7940.00
2022-12-28T12:06:01.471Z,7924.00
2022-12-28T12:07:01.510Z,8104.00
2022-12-28T12:08:01.445Z,8652.00
2022-12-28T12:09:01.443Z,8924.00
2022-12-28T12:10:01.461Z,9520.00
2022-12-28T12:11:01.409Z,9844.00
2022-12-28T12:12:01.932Z,9972.00
2022-12-28T12:13:01.811Z,9872.00
2022-12-28T12:14:01.553Z,9188.00
2022-12-28T12:15:01.357Z,9132.00
2022-12-28T12:16:01.438Z,9128.00
2022-12-28T12:17:01.382Z,9168.00
2022-12-28T12:18:01.360Z,9280.00
2022-12-28T12:19:01.670Z,9248.00
2022-12-28T12:20:01.342Z,9216.00
2022-12-28T12:21:01.895Z,9980.00
2022-12-28T12:22:01.713Z,13272.00
2022-12-28T12:23:01.542Z,12612.00
2022-12-28T12:24:01.268Z,14932.00
2022-12-28T12:25:01.275Z,11976.00
2022-12-28T12:26:01.241Z,10972.00
2022-12-28T12:27:01.262Z,12088.00
2022-12-28T12:28:01.241Z,10688.00
2022-12-28T12:29:01.286Z,11820.00
2022-12-28T12:30:02.084Z,11284.00
2022-12-28T12:31:01.578Z,12876.00
2022-12-28T12:32:01.446Z,11860.00
2022-12-28T12:33:01.165Z,11680.00
2022-12-28T12:34:01.157Z,12800.00
2022-12-28T12:35:01.138Z,15488.00
2022-12-28T12:36:01.146Z,15776.00
2022-12-28T12:37:01.176Z,17088.00
2022-12-28T12:38:01.117Z,19296.00
2022-12-28T12:39:02.875Z,20864.00
2022-12-28T12:40:01.508Z,20704.00
2022-12-28T12:41:01.274Z,22496.00
2022-12-28T12:42:01.123Z,23104.00
2022-12-28T12:43:01.064Z,22912.00
2022-12-28T12:44:01.042Z,22496.00
2022-12-28T12:45:01.040Z,21120.00
2022-12-28T12:46:01.058Z,19744.00
2022-12-28T12:47:05.611Z,19136.00
2022-12-28T12:48:01.968Z,17952.00
2022-12-28T12:49:01.334Z,17184.00